Time;durP1;ratioP1;P1;durP2;ratioP2;P2;SDS_P1;SDS_P2;PMS_P1;PMS_P2;Temp;Humidity;BMP_temperature;BMP_pressure;BME280_temperature;BME280_humidity;BME280_pressure;Samples;Min_cycle;Max_cycle;Signal;HPM_P1;HPM_P2
2024/04/19 00:01:45;;;;;;;7.63;5.77;;;3.20;99.90;;;;;;5393025;26;20022;-88
2024/04/19 00:04:12;;;;;;;7.40;5.73;;;3.20;99.90;;;;;;5363239;26;19995;-89
2024/04/19 00:06:37;;;;;;;6.93;5.60;;;3.20;99.90;;;;;;5394594;26;20022;-89
2024/04/19 00:09:03;;;;;;;7.87;5.67;;;3.20;99.90;;;;;;5395460;26;20000;-89
2024/04/19 00:11:29;;;;;;;8.23;5.77;;;3.20;99.90;;;;;;5396832;26;20054;-89
2024/04/19 00:13:54;;;;;;;7.67;5.93;;;3.10;99.90;;;;;;5394187;26;20033;-89
2024/04/19 00:16:21;;;;;;;8.13;5.83;;;3.20;99.90;;;;;;5396968;26;20518;-89
2024/04/19 00:18:47;;;;;;;8.03;5.40;;;3.10;99.90;;;;;;5394164;26;20055;-89
2024/04/19 00:21:12;;;;;;;7.03;5.40;;;3.10;99.90;;;;;;5394445;26;20015;-88
2024/04/19 00:23:38;;;;;;;7.33;5.27;;;3.10;99.90;;;;;;5392939;26;22004;-88
2024/04/19 00:26:03;;;;;;;7.90;5.87;;;3.10;99.90;;;;;;5360858;26;20018;-89
2024/04/19 00:28:29;;;;;;;7.33;5.83;;;3.10;99.90;;;;;;5393549;26;20463;-88
2024/04/19 00:30:55;;;;;;;6.90;5.40;;;3.10;99.90;;;;;;5394801;26;20676;-89
2024/04/19 00:33:22;;;;;;;6.90;5.43;;;3.10;99.90;;;;;;5394614;26;20084;-89
2024/04/19 00:35:47;;;;;;;6.80;5.63;;;3.10;99.90;;;;;;5358669;26;20491;-89
2024/04/19 00:38:13;;;;;;;8.07;5.30;;;3.10;99.90;;;;;;5394490;26;19992;-89
2024/04/19 00:40:38;;;;;;;6.97;5.80;;;3.00;99.90;;;;;;5394259;26;19999;-88
2024/04/19 00:43:04;;;;;;;7.33;5.77;;;3.00;99.90;;;;;;5394554;26;20004;-89
2024/04/19 00:45:38;;;;;;;7.03;6.00;;;3.00;99.90;;;;;;5394643;26;20042;-88
2024/04/19 00:48:15;;;;;;;6.50;5.50;;;3.00;99.90;;;;;;5393189;26;20004;-89
2024/04/19 00:50:43;;;;;;;7.40;6.13;;;3.00;99.90;;;;;;5361769;26;20008;-88
2024/04/19 00:53:09;;;;;;;6.83;5.67;;;2.90;99.90;;;;;;5393820;26;19995;-88
2024/04/19 00:55:35;;;;;;;7.00;5.73;;;2.90;99.90;;;;;;5393877;26;20062;-88
2024/04/19 00:58:03;;;;;;;7.83;6.00;;;3.00;99.90;;;;;;5394110;26;20008;-88
2024/04/19 01:00:29;;;;;;;7.63;6.30;;;2.90;99.90;;;;;;5393112;26;20126;-88
2024/04/19 01:02:56;;;;;;;8.60;6.53;;;2.90;99.90;;;;;;5393704;26;20075;-89
2024/04/19 01:05:23;;;;;;;9.00;7.00;;;2.90;99.90;;;;;;5393230;26;20010;-89
2024/04/19 01:07:49;;;;;;;7.97;6.33;;;2.80;99.90;;;;;;5391028;26;20011;-90
2024/04/19 01:10:15;;;;;;;8.67;6.73;;;2.90;99.90;;;;;;5395892;26;20018;-87
2024/04/19 01:12:41;;;;;;;10.43;6.80;;;2.80;99.90;;;;;;5364983;26;20087;-89
2024/04/19 01:15:17;;;;;;;9.57;7.10;;;2.80;99.90;;;;;;5396218;26;21113;-89
2024/04/19 01:17:43;;;;;;;9.23;7.67;;;2.80;99.90;;;;;;5396026;26;20004;-88
2024/04/19 01:20:09;;;;;;;10.47;7.93;;;2.80;99.90;;;;;;5395558;26;20010;-89
2024/04/19 01:22:34;;;;;;;8.87;7.00;;;2.80;99.90;;;;;;5395505;26;20011;-89
2024/04/19 01:25:03;;;;;;;8.77;7.10;;;2.80;99.90;;;;;;5396360;26;20515;-88
2024/04/19 01:27:29;;;;;;;8.90;7.17;;;2.80;99.90;;;;;;5397047;26;20000;-89
2024/04/19 01:29:55;;;;;;;8.63;7.37;;;2.90;99.90;;;;;;5366091;26;20015;-88
2024/04/19 01:32:20;;;;;;;8.30;7.17;;;2.90;99.90;;;;;;5364921;26;20113;-88
2024/04/19 01:34:46;;;;;;;8.73;7.40;;;2.90;99.90;;;;;;5395457;26;20016;-89
2024/04/19 01:37:11;;;;;;;9.13;7.77;;;2.80;99.90;;;;;;5396879;26;20018;-89
2024/04/19 01:39:37;;;;;;;9.53;7.77;;;2.80;99.90;;;;;;5397597;26;20011;-88
2024/04/19 01:42:04;;;;;;;10.10;8.53;;;2.80;99.90;;;;;;5398371;26;20023;-88
2024/04/19 01:44:29;;;;;;;10.57;8.03;;;2.80;99.90;;;;;;5398005;26;20538;-87
2024/04/19 01:46:55;;;;;;;11.27;8.90;;;2.70;99.90;;;;;;5395299;26;20022;-88
2024/04/19 01:49:21;;;;;;;11.03;9.40;;;2.70;99.90;;;;;;5397982;26;20007;-87
2024/04/19 01:51:46;;;;;;;13.43;10.13;;;2.70;99.90;;;;;;5364544;26;20014;-89
2024/04/19 01:54:15;;;;;;;13.63;9.17;;;2.70;99.90;;;;;;5397163;26;20011;-89
2024/04/19 01:56:41;;;;;;;10.90;8.97;;;2.70;99.90;;;;;;5394094;26;20045;-89
2024/04/19 01:59:06;;;;;;;12.40;8.97;;;2.70;99.90;;;;;;5396551;26;19999;-88
2024/04/19 02:01:32;;;;;;;12.20;9.80;;;2.70;99.90;;;;;;5397866;26;20008;-89
2024/04/19 02:03:57;;;;;;;13.20;10.33;;;2.70;99.90;;;;;;5396492;26;20027;-88
2024/04/19 02:06:23;;;;;;;11.63;9.37;;;2.70;99.90;;;;;;5395848;26;20015;-88
2024/04/19 02:08:48;;;;;;;14.33;10.07;;;2.80;99.90;;;;;;5364080;26;20111;-89
2024/04/19 02:11:14;;;;;;;13.17;10.47;;;2.80;99.90;;;;;;5395023;26;20011;-89
2024/04/19 02:13:42;;;;;;;13.17;10.20;;;2.70;99.90;;;;;;5394593;26;20000;-89
2024/04/19 02:16:07;;;;;;;12.33;9.90;;;2.70;99.90;;;;;;5396333;26;20019;-88
2024/04/19 02:18:33;;;;;;;11.90;10.20;;;2.70;99.90;;;;;;5364178;26;20016;-89
2024/04/19 02:20:58;;;;;;;11.63;9.77;;;2.80;99.90;;;;;;5393065;26;20246;-88
2024/04/19 02:23:36;;;;;;;13.17;10.47;;;2.70;99.90;;;;;;5394641;26;20000;-89
2024/04/19 02:26:02;;;;;;;13.87;11.30;;;2.70;99.90;;;;;;5396033;26;20032;-89
2024/04/19 02:31:12;;;;;;;14.80;10.73;;;2.70;99.90;;;;;;5398343;26;20015;-88
2024/04/19 02:33:38;;;;;;;13.57;10.80;;;2.70;99.90;;;;;;5395890;26;20012;-88
2024/04/19 02:36:03;;;;;;;12.70;10.47;;;2.70;99.90;;;;;;5395191;26;20080;-88
2024/04/19 02:38:29;;;;;;;13.17;10.53;;;2.70;99.90;;;;;;5395787;26;20568;-88
2024/04/19 02:40:55;;;;;;;15.37;10.60;;;2.70;99.90;;;;;;5396631;26;19999;-87
2024/04/19 02:43:20;;;;;;;13.87;10.57;;;2.70;99.90;;;;;;5395607;26;20008;-88
2024/04/19 02:45:46;;;;;;;12.83;10.33;;;2.70;99.90;;;;;;5397257;26;20018;-88
2024/04/19 02:48:12;;;;;;;14.90;11.03;;;2.70;99.90;;;;;;5394597;26;20076;-88
2024/04/19 02:50:37;;;;;;;14.23;11.63;;;2.70;99.90;;;;;;5395463;26;20011;-88
2024/04/19 02:53:03;;;;;;;14.20;11.13;;;2.70;99.90;;;;;;5395625;26;20507;-88
2024/04/19 02:55:29;;;;;;;15.90;11.47;;;2.70;99.90;;;;;;5394988;26;20011;-88
2024/04/19 02:57:55;;;;;;;14.03;11.50;;;2.70;99.90;;;;;;5398664;26;20015;-88
2024/04/19 03:00:20;;;;;;;18.60;12.20;;;2.70;99.90;;;;;;5400997;26;19996;-88
2024/04/19 03:02:46;;;;;;;14.27;11.37;;;2.60;99.90;;;;;;5396940;26;20504;-88
2024/04/19 03:05:11;;;;;;;15.73;11.77;;;2.70;99.90;;;;;;5395306;26;20011;-88
2024/04/19 03:07:37;;;;;;;13.13;10.83;;;2.70;99.90;;;;;;5394889;26;20000;-88
2024/04/19 03:10:02;;;;;;;15.23;11.73;;;2.70;99.90;;;;;;5395076;26;20003;-89
2024/04/19 03:12:28;;;;;;;13.30;10.93;;;2.70;99.90;;;;;;5395149;26;20020;-88
2024/04/19 03:14:53;;;;;;;15.23;11.53;;;2.70;99.90;;;;;;5393510;26;20080;-89
2024/04/19 03:17:19;;;;;;;13.57;11.23;;;2.70;99.90;;;;;;5395588;26;20080;-88
2024/04/19 03:19:45;;;;;;;14.80;11.47;;;2.80;99.90;;;;;;5393905;26;20014;-88
2024/04/19 03:22:10;;;;;;;16.00;12.03;;;2.80;99.90;;;;;;5363979;26;20098;-88
2024/04/19 03:24:36;;;;;;;14.80;11.77;;;2.80;99.90;;;;;;5394425;26;20532;-88
2024/04/19 03:27:03;;;;;;;15.77;11.83;;;2.80;99.90;;;;;;5394646;26;20448;-88
2024/04/19 03:29:29;;;;;;;13.40;11.23;;;2.90;99.90;;;;;;5396786;26;20000;-88
2024/04/19 03:31:54;;;;;;;16.00;12.20;;;2.90;99.90;;;;;;5395289;26;20455;-88
2024/04/19 03:34:22;;;;;;;16.17;12.50;;;2.90;99.90;;;;;;5361474;26;19999;-88
2024/04/19 03:36:48;;;;;;;15.13;11.87;;;2.90;99.90;;;;;;5360807;26;20015;-88
2024/04/19 03:39:15;;;;;;;15.43;11.97;;;2.90;99.90;;;;;;5394290;26;20012;-88
2024/04/19 03:41:43;;;;;;;15.50;11.97;;;2.90;99.90;;;;;;5396088;26;20015;-88
2024/04/19 03:47:03;;;;;;;17.23;12.10;;;2.90;99.90;;;;;;5311235;26;20001;-88
2024/04/19 03:49:28;;;;;;;16.00;11.67;;;3.00;99.90;;;;;;5392390;26;20007;-87
2024/04/19 03:51:56;;;;;;;15.00;11.80;;;3.00;99.90;;;;;;5394932;26;20014;-88
2024/04/19 03:54:21;;;;;;;15.57;12.00;;;3.00;99.90;;;;;;5393663;26;19999;-88
2024/04/19 03:56:47;;;;;;;13.43;11.50;;;3.00;99.90;;;;;;5394702;26;20004;-88
2024/04/19 03:59:12;;;;;;;14.87;12.20;;;3.00;99.90;;;;;;5393621;26;20050;-88
2024/04/19 04:01:38;;;;;;;15.43;12.23;;;2.90;99.90;;;;;;5395530;26;20413;-88
2024/04/19 04:04:06;;;;;;;14.90;11.87;;;2.90;99.90;;;;;;5393969;26;21773;-88
2024/04/19 04:06:31;;;;;;;16.53;11.73;;;2.90;99.90;;;;;;5391507;26;19995;-88
2024/04/19 04:08:57;;;;;;;15.50;11.23;;;2.90;99.90;;;;;;5394300;26;20033;-88
2024/04/19 04:11:23;;;;;;;16.43;12.50;;;3.00;99.90;;;;;;5361555;26;20448;-88
2024/04/19 04:13:48;;;;;;;15.77;12.33;;;2.90;99.90;;;;;;5392870;26;20008;-88
2024/04/19 04:16:14;;;;;;;15.43;12.40;;;3.00;99.90;;;;;;5392728;26;20023;-84
2024/04/19 04:18:40;;;;;;;15.37;12.13;;;3.10;99.90;;;;;;5391629;26;20067;-87
2024/04/19 04:21:06;;;;;;;17.13;13.30;;;3.10;99.90;;;;;;5393238;26;20022;-88
2024/04/19 04:23:31;;;;;;;18.00;13.60;;;3.10;99.90;;;;;;5391789;26;20004;-88
2024/04/19 04:25:57;;;;;;;16.20;13.07;;;3.10;99.90;;;;;;5391143;26;20028;-88
2024/04/19 04:28:23;;;;;;;16.43;13.03;;;3.10;99.90;;;;;;5391981;26;20011;-88
2024/04/19 04:30:49;;;;;;;17.87;13.37;;;3.10;99.90;;;;;;5392890;26;20015;-88
2024/04/19 04:33:18;;;;;;;18.20;14.67;;;3.10;99.90;;;;;;5390476;26;20007;-88
2024/04/19 04:35:46;;;;;;;20.93;15.17;;;3.00;99.90;;;;;;5391352;26;20011;-87
2024/04/19 04:38:12;;;;;;;18.97;14.03;;;3.10;99.90;;;;;;5392497;26;20011;-87
2024/04/19 04:40:38;;;;;;;19.17;14.60;;;3.10;99.90;;;;;;5390594;26;20089;-87
2024/04/19 04:43:03;;;;;;;18.10;14.63;;;3.10;99.90;;;;;;5391801;26;20100;-88
2024/04/19 04:45:30;;;;;;;20.80;15.80;;;3.10;99.90;;;;;;5392825;26;20034;-88
2024/04/19 04:47:56;;;;;;;22.83;14.73;;;3.10;99.90;;;;;;5393399;26;20455;-88
2024/04/19 04:50:23;;;;;;;22.03;16.10;;;3.10;99.90;;;;;;5392254;26;20012;-87
2024/04/19 04:52:49;;;;;;;17.30;13.93;;;3.10;99.90;;;;;;5387670;26;20015;-88
2024/04/19 04:55:16;;;;;;;20.17;14.67;;;3.10;99.90;;;;;;5390534;26;20011;-89
2024/04/19 04:57:41;;;;;;;18.67;14.60;;;3.20;99.90;;;;;;5361158;26;20023;-89
2024/04/19 05:00:08;;;;;;;19.70;14.93;;;3.20;99.90;;;;;;5391961;26;20084;-88
2024/04/19 05:02:34;;;;;;;18.30;14.23;;;3.20;99.90;;;;;;5391830;26;20011;-88
2024/04/19 05:05:00;;;;;;;20.67;15.30;;;3.20;99.90;;;;;;5361662;26;20015;-88
2024/04/19 05:07:28;;;;;;;21.67;14.90;;;3.20;99.90;;;;;;5395411;26;21827;-88
2024/04/19 05:09:57;;;;;;;16.67;12.97;;;3.30;99.90;;;;;;5357228;26;20066;-87
2024/04/19 05:12:23;;;;;;;17.57;13.93;;;3.30;99.90;;;;;;5387151;26;20951;-87
2024/04/19 05:14:49;;;;;;;18.97;15.20;;;3.30;99.90;;;;;;5356284;26;20015;-88
2024/04/19 05:17:15;;;;;;;21.67;15.00;;;3.30;99.90;;;;;;5383550;26;20004;-88
2024/04/19 05:19:42;;;;;;;19.47;14.03;;;3.40;99.90;;;;;;5391552;26;20101;-88
2024/04/19 05:22:07;;;;;;;17.77;14.37;;;3.40;99.90;;;;;;5393023;26;20007;-88
2024/04/19 05:24:33;;;;;;;17.60;13.87;;;3.40;99.90;;;;;;5392959;26;20007;-88
2024/04/19 05:26:58;;;;;;;16.93;13.30;;;3.50;99.90;;;;;;5358836;26;20007;-88
2024/04/19 05:29:25;;;;;;;16.27;13.03;;;3.50;99.90;;;;;;5394836;26;20036;-88
2024/04/19 05:31:52;;;;;;;16.07;12.67;;;3.60;99.90;;;;;;5393666;26;20011;-89
2024/04/19 05:34:18;;;;;;;36.37;13.07;;;3.60;99.90;;;;;;5394574;26;20012;-86
2024/04/19 05:36:43;;;;;;;16.67;13.57;;;3.60;99.90;;;;;;5394200;26;20265;-88
2024/04/19 05:39:09;;;;;;;18.23;12.87;;;3.70;99.90;;;;;;5390859;26;20011;-89
2024/04/19 05:41:34;;;;;;;15.83;12.67;;;3.70;99.90;;;;;;5395011;26;20032;-89
2024/04/19 05:44:00;;;;;;;16.30;12.77;;;3.80;99.90;;;;;;5359750;26;20000;-88
2024/04/19 05:46:27;;;;;;;16.60;11.97;;;3.80;99.90;;;;;;5390568;26;20022;-88
2024/04/19 05:48:52;;;;;;;15.67;12.03;;;3.90;99.90;;;;;;5393870;26;20006;-88
2024/04/19 05:51:18;;;;;;;16.13;11.70;;;4.00;99.90;;;;;;5393460;26;20015;-88
2024/04/19 05:53:43;;;;;;;13.40;10.47;;;4.00;99.90;;;;;;5393618;26;20037;-88
2024/04/19 05:56:09;;;;;;;14.13;11.00;;;4.00;99.90;;;;;;5390522;26;20015;-89
2024/04/19 05:58:34;;;;;;;14.77;11.57;;;4.10;99.90;;;;;;5387558;26;20012;-90
2024/04/19 06:01:00;;;;;;;16.10;11.50;;;4.20;99.90;;;;;;5394779;26;20011;-89
2024/04/19 06:03:25;;;;;;;14.03;10.63;;;4.20;99.90;;;;;;5394114;26;20006;-89
2024/04/19 06:05:51;;;;;;;14.33;11.27;;;4.30;99.90;;;;;;5392440;26;20023;-89
2024/04/19 06:08:17;;;;;;;13.57;9.97;;;4.30;99.90;;;;;;5390608;26;20008;-88
2024/04/19 06:10:42;;;;;;;11.43;9.53;;;4.40;99.90;;;;;;5394328;26;20038;-89
2024/04/19 06:13:10;;;;;;;13.23;10.23;;;4.40;99.90;;;;;;5390004;26;20004;-89
2024/04/19 06:15:38;;;;;;;12.67;9.63;;;4.50;99.90;;;;;;5392064;26;20047;-87
2024/04/19 06:18:04;;;;;;;12.83;9.97;;;4.50;99.90;;;;;;5391995;26;20026;-88
2024/04/19 06:20:29;;;;;;;13.27;9.73;;;4.50;99.90;;;;;;5392237;26;20000;-88
2024/04/19 06:22:55;;;;;;;13.00;10.70;;;4.50;99.90;;;;;;5390311;26;20000;-87
2024/04/19 06:25:20;;;;;;;12.20;9.80;;;4.50;99.90;;;;;;5390283;26;20018;-89
2024/04/19 06:27:47;;;;;;;12.57;9.53;;;4.50;99.90;;;;;;5392237;26;20004;-87
2024/04/19 06:30:13;;;;;;;12.97;9.30;;;4.60;99.90;;;;;;5393224;26;20043;-87
2024/04/19 06:32:41;;;;;;;13.83;10.70;;;4.60;99.90;;;;;;5394641;26;20011;-88
2024/04/19 06:35:08;;;;;;;13.07;9.80;;;4.70;99.90;;;;;;5389983;26;20003;-88
2024/04/19 06:37:33;;;;;;;12.10;9.77;;;4.70;99.90;;;;;;5387045;26;20008;-88
2024/04/19 06:39:59;;;;;;;14.83;9.90;;;4.80;99.90;;;;;;5394060;26;20000;-87
2024/04/19 06:42:24;;;;;;;16.00;9.07;;;4.90;99.90;;;;;;5394680;26;20051;-89
2024/04/19 06:44:50;;;;;;;11.20;8.47;;;4.90;99.90;;;;;;5393848;26;20015;-88
2024/04/19 06:47:15;;;;;;;12.87;9.67;;;5.00;99.90;;;;;;5393076;26;20010;-88
2024/04/19 06:49:41;;;;;;;13.90;9.53;;;5.00;99.90;;;;;;5388566;26;20022;-87
2024/04/19 06:52:07;;;;;;;13.07;9.40;;;5.00;99.90;;;;;;5389053;26;20007;-87
2024/04/19 06:54:33;;;;;;;13.77;9.50;;;5.00;99.90;;;;;;5390665;26;19996;-88
2024/04/19 06:56:58;;;;;;;15.90;9.90;;;5.00;99.90;;;;;;5389861;26;20016;-87
2024/04/19 06:59:24;;;;;;;11.77;9.17;;;5.10;99.90;;;;;;5390394;26;20011;-87
2024/04/19 07:01:50;;;;;;;14.00;9.67;;;5.10;99.90;;;;;;5389233;26;20007;-87
2024/04/19 07:04:17;;;;;;;13.73;9.53;;;5.10;99.90;;;;;;5389787;26;20011;-88
2024/04/19 07:06:42;;;;;;;13.50;10.20;;;5.10;99.90;;;;;;5390558;26;20042;-88
2024/04/19 07:09:10;;;;;;;13.20;9.37;;;5.30;99.90;;;;;;5388455;26;20003;-87
2024/04/19 07:11:35;;;;;;;12.43;9.47;;;5.30;99.90;;;;;;5391751;26;20798;-88
2024/04/19 07:14:01;;;;;;;13.37;9.27;;;5.30;99.90;;;;;;5391206;26;20003;-87
2024/04/19 07:16:26;;;;;;;12.13;9.17;;;5.40;99.90;;;;;;5390918;26;20086;-87
2024/04/19 07:18:52;;;;;;;14.77;10.60;;;5.40;99.90;;;;;;5390042;26;19995;-87
2024/04/19 07:21:18;;;;;;;11.73;9.50;;;5.40;99.90;;;;;;5389479;26;19996;-87
2024/04/19 07:23:43;;;;;;;13.10;9.90;;;5.40;99.90;;;;;;5384834;26;20474;-86
2024/04/19 07:26:09;;;;;;;13.90;10.27;;;5.50;99.90;;;;;;5390022;26;20010;-87
2024/04/19 07:28:34;;;;;;;14.70;10.50;;;5.40;99.90;;;;;;5358281;26;20019;-88
2024/04/19 07:31:00;;;;;;;14.43;9.70;;;5.40;99.90;;;;;;5392943;26;20007;-87
2024/04/19 07:33:26;;;;;;;14.60;10.43;;;5.40;99.90;;;;;;5394348;26;20032;-87
2024/04/19 07:35:51;;;;;;;13.87;10.03;;;5.40;99.90;;;;;;5390874;26;19999;-86
2024/04/19 07:38:17;;;;;;;13.77;9.90;;;5.40;99.90;;;;;;5392337;26;20003;-87
2024/04/19 07:40:42;;;;;;;12.43;9.17;;;5.40;99.90;;;;;;5394032;26;20037;-86
2024/04/19 07:43:08;;;;;;;13.27;9.83;;;5.40;99.90;;;;;;5392341;26;20024;-87
2024/04/19 07:45:33;;;;;;;12.53;9.33;;;5.40;99.90;;;;;;5393204;26;20019;-87
2024/04/19 07:47:59;;;;;;;10.87;9.17;;;5.50;99.90;;;;;;5388831;26;20007;-87
2024/04/19 07:50:25;;;;;;;12.50;9.20;;;5.50;99.90;;;;;;5392657;26;20007;-87
2024/04/19 07:52:50;;;;;;;13.37;9.10;;;5.40;99.90;;;;;;5395595;26;20113;-88
2024/04/19 07:55:19;;;;;;;13.20;9.33;;;5.50;99.90;;;;;;5362875;26;19999;-88
2024/04/19 07:57:48;;;;;;;10.97;8.07;;;5.50;99.90;;;;;;5395017;26;20007;-87
2024/04/19 08:00:17;;;;;;;11.33;8.53;;;5.60;99.90;;;;;;5392227;26;20007;-87
2024/04/19 08:02:43;;;;;;;9.53;7.67;;;5.60;99.90;;;;;;5393169;26;20007;-86
2024/04/19 08:05:09;;;;;;;12.53;8.87;;;5.80;99.90;;;;;;5393272;26;20003;-88
2024/04/19 08:07:35;;;;;;;10.17;7.70;;;5.90;99.90;;;;;;5391662;26;20011;-88
2024/04/19 08:10:04;;;;;;;10.90;7.87;;;6.10;99.90;;;;;;5390886;26;20040;-89
2024/04/19 08:12:29;;;;;;;11.07;8.00;;;6.20;99.90;;;;;;5361952;26;20011;-88
2024/04/19 08:14:55;;;;;;;9.37;7.23;;;6.30;99.90;;;;;;5391929;26;20014;-88
2024/04/19 08:17:21;;;;;;;10.63;7.43;;;6.40;99.90;;;;;;5392113;26;20537;-87
2024/04/19 08:19:47;;;;;;;10.90;7.57;;;6.50;99.90;;;;;;5390535;26;20641;-88
2024/04/19 08:22:12;;;;;;;9.07;7.10;;;6.70;99.90;;;;;;5390236;26;20008;-87
2024/04/19 08:24:39;;;;;;;10.87;7.40;;;6.80;99.90;;;;;;5388645;26;20022;-87
2024/04/19 08:27:05;;;;;;;12.03;7.07;;;6.90;99.90;;;;;;5388545;26;20015;-88
2024/04/19 08:29:32;;;;;;;14.07;6.73;;;7.10;99.90;;;;;;5388658;26;19995;-88
2024/04/19 08:31:58;;;;;;;9.70;6.77;;;7.30;99.90;;;;;;5389423;26;20332;-88
2024/04/19 08:34:23;;;;;;;8.27;6.03;;;7.30;99.90;;;;;;5387728;26;20010;-87
2024/04/19 08:36:49;;;;;;;8.17;6.10;;;7.40;99.90;;;;;;5389872;26;20043;-88
2024/04/19 08:39:15;;;;;;;9.07;6.37;;;7.30;99.90;;;;;;5384663;26;20026;-88
2024/04/19 08:41:41;;;;;;;8.07;6.33;;;7.40;99.90;;;;;;5388587;26;20007;-88
2024/04/19 08:44:08;;;;;;;7.90;6.30;;;7.30;99.90;;;;;;5391655;26;20007;-89
2024/04/19 08:46:35;;;;;;;9.27;6.00;;;7.30;99.90;;;;;;5391666;26;20015;-87
2024/04/19 08:49:06;;;;;;;8.43;6.47;;;7.40;99.90;;;;;;5390507;26;20016;-88
2024/04/19 08:51:35;;;;;;;10.77;6.33;;;7.50;99.90;;;;;;5391287;26;20008;-87
2024/04/19 08:54:02;;;;;;;9.10;6.73;;;7.60;99.90;;;;;;5389888;26;19999;-88
2024/04/19 08:56:28;;;;;;;8.00;6.17;;;7.60;99.90;;;;;;5388395;26;20004;-88
2024/04/19 08:58:56;;;;;;;9.23;6.83;;;7.60;99.90;;;;;;5387850;26;20024;-88
2024/04/19 09:01:22;;;;;;;10.47;6.53;;;7.50;99.90;;;;;;5389820;26;20008;-88
2024/04/19 09:03:48;;;;;;;7.27;5.83;;;7.50;99.90;;;;;;5390274;26;20106;-88
2024/04/19 09:06:14;;;;;;;15.10;6.23;;;7.70;99.90;;;;;;5352963;26;20003;-89
2024/04/19 09:08:40;;;;;;;8.27;5.70;;;7.60;99.90;;;;;;5387076;26;20008;-89
2024/04/19 09:11:13;;;;;;;8.63;5.60;;;7.50;99.90;;;;;;5386779;26;20003;-88
2024/04/19 09:13:39;;;;;;;9.50;5.37;;;7.40;99.90;;;;;;5388579;26;20502;-87
2024/04/19 09:16:05;;;;;;;8.30;5.50;;;7.40;99.90;;;;;;5354952;26;20039;-87
2024/04/19 09:18:30;;;;;;;7.93;5.67;;;7.40;99.90;;;;;;5388506;26;20436;-87
2024/04/19 09:20:56;;;;;;;9.00;6.07;;;7.50;99.90;;;;;;5388692;26;20084;-87
2024/04/19 09:23:22;;;;;;;8.27;6.17;;;7.50;99.90;;;;;;5390999;26;20022;-88
2024/04/19 09:25:59;;;;;;;9.77;6.60;;;7.40;99.90;;;;;;5387855;26;19995;-87
2024/04/19 09:28:28;;;;;;;7.83;5.50;;;7.40;99.90;;;;;;5389637;26;20053;-87
2024/04/19 09:30:54;;;;;;;9.20;6.63;;;7.40;99.90;;;;;;5391728;26;20021;-85
2024/04/19 09:33:21;;;;;;;9.33;6.37;;;7.40;99.90;;;;;;5390590;26;20475;-87
2024/04/19 09:35:50;;;;;;;11.07;7.40;;;7.30;99.90;;;;;;5389263;26;20069;-85
2024/04/19 09:38:19;;;;;;;8.00;5.93;;;7.20;99.90;;;;;;5391422;26;20016;-87
2024/04/19 09:40:46;;;;;;;11.93;5.70;;;7.20;99.90;;;;;;5392696;26;20012;-87
2024/04/19 09:43:17;;;;;;;8.53;6.13;;;7.10;99.90;;;;;;5388568;26;20010;-87
2024/04/19 09:45:44;;;;;;;10.67;6.13;;;7.00;99.90;;;;;;5360155;26;20841;-87
2024/04/19 09:48:17;;;;;;;9.37;5.90;;;6.90;99.90;;;;;;5392874;26;20656;-87
2024/04/19 09:50:49;;;;;;;8.13;6.43;;;6.90;99.90;;;;;;5394524;26;20043;-87
2024/04/19 09:53:27;;;;;;;8.10;5.83;;;6.90;99.90;;;;;;5392722;26;20414;-86
2024/04/19 09:56:10;;;;;;;8.70;5.50;;;7.20;99.90;;;;;;5394800;26;20072;-88
2024/04/19 09:58:37;;;;;;;7.30;5.23;;;7.30;99.90;;;;;;5396068;26;20117;-86
2024/04/19 10:01:03;;;;;;;7.67;5.37;;;7.50;99.90;;;;;;5396246;26;20083;-87
2024/04/19 10:03:29;;;;;;;6.77;5.27;;;7.70;99.90;;;;;;5397881;26;20012;-87
2024/04/19 10:05:55;;;;;;;9.00;5.73;;;7.70;99.90;;;;;;5395963;26;20081;-87
2024/04/19 10:08:23;;;;;;;7.40;4.83;;;7.70;99.90;;;;;;5391273;26;20016;-88
2024/04/19 10:10:52;;;;;;;10.10;5.47;;;7.70;99.90;;;;;;5394715;26;19999;-87
2024/04/19 10:13:18;;;;;;;6.87;5.07;;;7.60;99.90;;;;;;5392719;26;21887;-86
2024/04/19 10:15:46;;;;;;;6.10;4.50;;;7.40;99.90;;;;;;5392480;26;20023;-87
2024/04/19 10:18:12;;;;;;;6.60;4.90;;;7.10;99.90;;;;;;5393910;26;20787;-87
2024/04/19 10:20:41;;;;;;;6.57;4.80;;;7.00;99.90;;;;;;5395420;26;20004;-87
2024/04/19 10:23:09;;;;;;;7.83;4.60;;;6.90;99.90;;;;;;5361294;26;20007;-87
2024/04/19 10:25:38;;;;;;;5.37;3.77;;;7.00;99.90;;;;;;5360674;26;20023;-87
2024/04/19 10:28:10;;;;;;;5.97;4.37;;;7.20;99.90;;;;;;5394521;26;20008;-87
2024/04/19 10:30:37;;;;;;;7.93;3.80;;;7.30;99.90;;;;;;5361295;26;20007;-87
2024/04/19 10:33:03;;;;;;;5.47;3.70;;;7.40;99.90;;;;;;5393662;26;20012;-86
2024/04/19 10:35:37;;;;;;;6.33;3.63;;;7.40;99.90;;;;;;5387465;26;20012;-86
2024/04/19 10:38:03;;;;;;;5.65;4.07;;;7.50;99.90;;;;;;5391952;26;20021;-86
2024/04/19 10:40:29;;;;;;;6.57;3.67;;;7.40;99.90;;;;;;5359958;26;20113;-87
2024/04/19 10:43:05;;;;;;;8.97;4.40;;;7.40;99.90;;;;;;5391608;26;20011;-85
2024/04/19 10:45:34;;;;;;;7.17;4.23;;;7.50;99.90;;;;;;5395626;26;20011;-85
2024/04/19 10:48:01;;;;;;;6.57;3.60;;;7.60;99.90;;;;;;5392146;26;20004;-86
2024/04/19 10:50:28;;;;;;;5.17;3.90;;;7.80;99.90;;;;;;5393168;26;20026;-86
2024/04/19 10:52:54;;;;;;;6.37;3.70;;;7.90;99.90;;;;;;5358832;26;19999;-86
2024/04/19 10:55:20;;;;;;;4.63;3.43;;;8.00;99.90;;;;;;5392823;26;20007;-86
2024/04/19 10:57:46;;;;;;;5.13;3.90;;;8.10;99.90;;;;;;5393811;26;20348;-87
2024/04/19 11:00:13;;;;;;;6.50;4.27;;;7.80;99.90;;;;;;5391893;26;20363;-86
2024/04/19 11:02:39;;;;;;;7.20;3.63;;;7.70;99.90;;;;;;5394268;26;20015;-86
2024/04/19 11:05:06;;;;;;;5.77;3.80;;;7.60;99.90;;;;;;5390831;26;20061;-86
2024/04/19 11:07:34;;;;;;;7.30;4.00;;;7.40;99.90;;;;;;5388851;26;20078;-87
2024/04/19 11:09:59;;;;;;;4.23;3.30;;;7.40;99.90;;;;;;5391921;26;20012;-87
2024/04/19 11:12:25;;;;;;;6.73;3.50;;;7.50;99.90;;;;;;5395334;26;20369;-86
2024/04/19 11:14:51;;;;;;;4.87;3.33;;;7.60;99.90;;;;;;5359106;26;20085;-86
2024/04/19 11:17:17;;;;;;;4.27;3.40;;;7.60;99.90;;;;;;5393362;26;20011;-86
2024/04/19 11:19:42;;;;;;;5.50;3.20;;;7.70;99.90;;;;;;5392040;26;20084;-87
2024/04/19 11:22:08;;;;;;;6.60;3.20;;;7.60;99.90;;;;;;5392538;26;20010;-86
2024/04/19 11:24:34;;;;;;;5.03;3.37;;;7.60;99.90;;;;;;5359516;26;20080;-86
2024/04/19 11:27:01;;;;;;;4.73;3.40;;;7.70;99.90;;;;;;5392231;26;20015;-87
2024/04/19 11:29:26;;;;;;;6.30;3.07;;;7.80;99.90;;;;;;5358175;26;20004;-86
2024/04/19 11:31:52;;;;;;;4.20;2.90;;;7.80;99.90;;;;;;5392976;26;20023;-87
2024/04/19 11:34:17;;;;;;;6.37;3.60;;;7.80;99.90;;;;;;5390737;26;20008;-85
2024/04/19 11:36:46;;;;;;;4.80;3.50;;;7.80;99.90;;;;;;5393943;26;20007;-86
2024/04/19 11:39:11;;;;;;;7.03;3.50;;;7.80;99.90;;;;;;5393346;26;20096;-86
2024/04/19 11:41:38;;;;;;;5.10;3.40;;;7.80;99.90;;;;;;5362987;26;20015;-86
2024/04/19 11:44:05;;;;;;;3.50;2.87;;;7.80;99.90;;;;;;5393875;26;20008;-86
2024/04/19 11:46:31;;;;;;;4.30;3.00;;;7.80;99.90;;;;;;5390942;26;20003;-87
2024/04/19 11:49:04;;;;;;;8.03;3.53;;;7.70;99.90;;;;;;5390386;26;20011;-86
2024/04/19 11:51:31;;;;;;;5.27;2.90;;;7.60;99.90;;;;;;5393273;26;20134;-87
2024/04/19 11:53:56;;;;;;;6.77;3.10;;;7.40;99.90;;;;;;5390967;26;20004;-86
2024/04/19 11:56:22;;;;;;;7.20;3.80;;;7.20;99.90;;;;;;5388388;26;20098;-87
2024/04/19 11:58:52;;;;;;;3.33;2.73;;;7.20;99.90;;;;;;5390332;26;19999;-88
2024/04/19 12:01:21;;;;;;;3.60;2.80;;;7.30;99.90;;;;;;5391467;26;20008;-87
2024/04/19 12:03:47;;;;;;;6.20;2.80;;;7.20;99.90;;;;;;5391660;26;20053;-88
2024/04/19 12:06:13;;;;;;;3.80;2.90;;;7.10;99.90;;;;;;5391377;26;20011;-88
2024/04/19 12:08:38;;;;;;;4.27;3.03;;;7.30;99.90;;;;;;5392351;26;20017;-87
2024/04/19 12:11:04;;;;;;;7.33;3.17;;;7.40;99.90;;;;;;5356559;26;20008;-87
2024/04/19 12:13:29;;;;;;;4.47;3.00;;;7.40;99.90;;;;;;5392007;26;20033;-86
2024/04/19 12:15:55;;;;;;;4.10;2.80;;;7.40;99.90;;;;;;5360588;26;20019;-86
2024/04/19 12:18:20;;;;;;;5.13;2.80;;;7.50;99.90;;;;;;5389709;26;20020;-89
2024/04/19 12:20:47;;;;;;;5.27;2.97;;;7.50;99.90;;;;;;5390462;26;20047;-89
2024/04/19 12:23:13;;;;;;;4.03;2.93;;;7.50;99.90;;;;;;5357026;26;20069;-89
2024/04/19 12:25:38;;;;;;;5.83;3.00;;;7.60;99.90;;;;;;5389840;26;20020;-89
2024/04/19 12:28:04;;;;;;;4.37;1.97;;;7.60;99.90;;;;;;5391509;26;20414;-89
2024/04/19 12:30:30;;;;;;;5.67;2.20;;;7.50;99.90;;;;;;5394749;26;20022;-89
2024/04/19 12:32:55;;;;;;;2.53;1.70;;;7.50;99.90;;;;;;5394073;26;20000;-91
2024/04/19 12:35:23;;;;;;;3.63;2.47;;;7.50;99.90;;;;;;5390184;26;20015;-90
2024/04/19 12:37:49;;;;;;;5.23;2.63;;;7.60;99.90;;;;;;5357170;26;20015;-89
2024/04/19 12:40:14;;;;;;;3.90;2.40;;;7.40;99.90;;;;;;5360530;26;20003;-89
2024/04/19 12:42:41;;;;;;;4.07;2.00;;;7.40;99.90;;;;;;5359358;26;20011;-90
2024/04/19 12:45:07;;;;;;;2.80;2.07;;;7.40;99.90;;;;;;5389537;26;20448;-89
2024/04/19 12:47:32;;;;;;;4.60;2.30;;;7.40;99.90;;;;;;5391419;26;19999;-90
2024/04/19 12:49:58;;;;;;;6.60;3.17;;;7.50;99.90;;;;;;5387935;26;19999;-89